Time;durP1;ratioP1;P1;durP2;ratioP2;P2;SDS_P1;SDS_P2;PMS_P1;PMS_P2;Temp;Humidity;BMP_temperature;BMP_pressure;BME280_temperature;BME280_humidity;BME280_pressure;Samples;Min_cycle;Max_cycle;Signal;HPM_P1;HPM_P2
2021/06/14 04:52:00;;;;;;;;;;;12.50;99.90;;;;;;5260986;23;20359;-68
2021/06/14 04:54:27;;;;;;;;;;;12.50;99.90;;;;;;4933885;29;19927;-68
2021/06/14 04:56:54;;;;;;;;;;;12.40;99.90;;;;;;4934056;29;20398;-69
2021/06/14 04:59:20;;;;;;;;;;;12.50;99.90;;;;;;4935164;29;19927;-68
2021/06/14 05:01:47;;;;;;;;;;;12.70;99.90;;;;;;4932664;29;20068;-68
2021/06/14 05:04:14;;;;;;;;;;;12.80;99.90;;;;;;4962452;23;19927;-66
2021/06/14 05:06:43;;;;;;;;;;;12.90;99.90;;;;;;4970793;28;20294;-66
2021/06/14 05:09:12;;;;;;;;;;;13.00;99.90;;;;;;4967289;28;20029;-66
2021/06/14 05:11:39;;;;;;;;;;;13.20;99.90;;;;;;4952914;28;20398;-66
2021/06/14 05:14:06;;;;;;;;;;;13.20;99.90;;;;;;4950999;29;19933;-66
2021/06/14 05:16:33;;;;;;;;;;;13.40;99.90;;;;;;4952923;28;19933;-66
2021/06/14 05:19:00;;;;;;;;;;;13.50;99.90;;;;;;4954919;28;19973;-66
2021/06/14 05:21:27;;;;;;;;;;;13.90;99.90;;;;;;4970031;28;19933;-67
2021/06/14 05:23:54;;;;;;;;;;;14.30;99.90;;;;;;4961289;28;20036;-67
2021/06/14 05:26:22;;;;;;;;;;;14.90;99.90;;;;;;4951712;28;19927;-66
2021/06/14 05:28:48;;;;;;;;;;;16.10;99.90;;;;;;4963964;28;19988;-65
2021/06/14 05:31:15;;;;;;;;;;;17.20;99.90;;;;;;4951960;28;20021;-66
2021/06/14 05:33:42;;;;;;;;;;;17.40;99.90;;;;;;4952414;28;19927;-66
2021/06/14 05:36:09;;;;;;;;;;;17.80;99.90;;;;;;4951836;29;19961;-66
2021/06/14 05:38:36;;;;;;;;;;;18.10;99.90;;;;;;4951876;28;20026;-67
2021/06/14 05:41:02;;;;;;;;;;;18.70;99.90;;;;;;4951803;28;19932;-66
2021/06/14 05:43:31;;;;;;;;;;;19.40;99.90;;;;;;4952312;28;20474;-66
2021/06/14 05:45:57;;;;;;;;;;;19.50;99.90;;;;;;4952048;28;20378;-67
2021/06/14 05:48:24;;;;;;;;;;;19.50;99.90;;;;;;4952243;28;19933;-67
2021/06/14 05:50:51;;;;;;;;;;;20.20;99.90;;;;;;4952166;28;20020;-66
2021/06/14 05:53:19;;;;;;;;;;;20.40;99.90;;;;;;4952323;28;20290;-66
2021/06/14 05:55:46;;;;;;;;;;;20.50;99.90;;;;;;4951676;28;19926;-66
2021/06/14 05:58:13;;;;;;;;;;;20.90;99.90;;;;;;4952034;28;19969;-67
2021/06/14 06:00:41;;;;;;;;;;;20.40;99.90;;;;;;4952024;28;19931;-66
2021/06/14 06:03:08;;;;;;;;;;;20.30;99.90;;;;;;4952107;28;19973;-67
2021/06/14 06:05:34;;;;;;;;;;;20.80;99.90;;;;;;4951763;28;19933;-66
2021/06/14 06:08:02;;;;;;;;;;;21.10;99.90;;;;;;4952003;28;19934;-66
2021/06/14 06:10:29;;;;;;;;;;;20.90;99.90;;;;;;4952169;28;20480;-66
2021/06/14 06:12:56;;;;;;;;;;;21.20;99.90;;;;;;4952036;28;20386;-67
2021/06/14 06:15:22;;;;;;;;;;;21.40;99.90;;;;;;4951896;28;20378;-66
2021/06/14 06:17:51;;;;;;;;;;;20.90;99.90;;;;;;4952097;28;20462;-66
2021/06/14 06:20:18;;;;;;;;;;;20.80;99.90;;;;;;4951884;28;19926;-66
2021/06/14 06:22:45;;;;;;;;;;;20.90;99.90;;;;;;4952142;29;19933;-66
2021/06/14 06:25:14;;;;;;;;;;;20.50;99.90;;;;;;4952394;28;20289;-67
2021/06/14 06:27:41;;;;;;;;;;;20.50;99.90;;;;;;4951857;28;20370;-66
2021/06/14 06:30:09;;;;;;;;;;;20.80;99.90;;;;;;4969634;28;19941;-66
2021/06/14 06:32:35;;;;;;;;;;;21.00;99.90;;;;;;4971064;28;20016;-66
2021/06/14 06:35:04;;;;;;;;;;;21.40;99.90;;;;;;4971186;28;19932;-68
2021/06/14 06:37:31;;;;;;;;;;;21.40;99.90;;;;;;4970824;28;20024;-67
2021/06/14 06:39:58;;;;;;;;;;;22.10;99.90;;;;;;4971024;28;20009;-68
2021/06/14 06:42:25;;;;;;;;;;;21.90;99.90;;;;;;4970562;28;19926;-67
2021/06/14 06:44:52;;;;;;;;;;;22.10;99.90;;;;;;4970773;28;19926;-67
2021/06/14 06:47:19;;;;;;;;;;;22.30;99.90;;;;;;4971173;28;19930;-67
2021/06/14 06:49:47;;;;;;;;;;;22.20;99.90;;;;;;4971067;28;20390;-67
2021/06/14 06:52:15;;;;;;;;;;;22.20;99.90;;;;;;4971253;28;19930;-67
2021/06/14 06:54:42;;;;;;;;;;;22.30;99.90;;;;;;4970505;28;19926;-68
2021/06/14 06:57:09;;;;;;;;;;;22.70;99.90;;;;;;4970593;28;20394;-68
2021/06/14 06:59:36;;;;;;;;;;;22.80;99.90;;;;;;4970660;28;19937;-67
2021/06/14 07:02:03;;;;;;;;;;;22.90;99.90;;;;;;4970610;28;19933;-67
2021/06/14 07:04:29;;;;;;;;;;;22.30;99.90;;;;;;4970515;28;19973;-68
2021/06/14 07:06:56;;;;;;;;;;;23.20;99.90;;;;;;4972527;28;19930;-68
2021/06/14 07:09:24;;;;;;;;;;;23.40;99.90;;;;;;4974369;28;20009;-68
2021/06/14 07:11:51;;;;;;;;;;;24.00;99.30;;;;;;4974285;28;19926;-68
2021/06/14 07:14:18;;;;;;;;;;;23.70;99.40;;;;;;4972887;28;20404;-67
2021/06/14 07:16:45;;;;;;;;;;;23.80;98.80;;;;;;4974729;28;19968;-67
2021/06/14 07:19:11;;;;;;;;;;;23.40;98.70;;;;;;4974646;28;19926;-67
2021/06/14 07:21:38;;;;;;;;;;;24.00;97.60;;;;;;4983851;28;20043;-67
2021/06/14 07:24:05;;;;;;;;;;;24.40;97.50;;;;;;4980201;28;19937;-68
2021/06/14 07:26:33;;;;;;;;;;;24.60;95.80;;;;;;4974055;28;20021;-68
2021/06/14 07:29:01;;;;;;;;;;;25.00;95.70;;;;;;4965024;28;19930;-67
2021/06/14 07:31:27;;;;;;;;;;;25.10;93.50;;;;;;4954616;28;19933;-67
2021/06/14 07:33:57;;;;;;;;;;;23.80;94.40;;;;;;4953985;28;20037;-67
2021/06/14 07:36:24;;;;;;;;;;;24.30;95.50;;;;;;4954351;28;20379;-68
2021/06/14 07:38:51;;;;;;;;;;;24.30;93.90;;;;;;4954414;28;20024;-67
2021/06/14 07:41:18;;;;;;;;;;;24.50;94.10;;;;;;4954132;29;19927;-68
2021/06/14 07:43:46;;;;;;;;;;;23.90;94.90;;;;;;4954248;28;19964;-68
2021/06/14 07:46:13;;;;;;;;;;;24.20;94.00;;;;;;4953900;29;19926;-67
2021/06/14 07:48:40;;;;;;;;;;;24.70;93.20;;;;;;4954348;28;19950;-66
2021/06/14 07:51:09;;;;;;;;;;;24.10;93.60;;;;;;4952759;29;20405;-67
2021/06/14 07:53:36;;;;;;;;;;;23.60;94.80;;;;;;4954173;28;20295;-66
2021/06/14 07:56:03;;;;;;;;;;;24.50;94.40;;;;;;4953999;29;20013;-67
2021/06/14 07:58:30;;;;;;;;;;;25.00;93.20;;;;;;4954113;28;19930;-67
2021/06/14 08:01:00;;;;;;;;;;;25.20;93.80;;;;;;4953802;29;19927;-68
2021/06/14 08:03:29;;;;;;;;;;;24.70;93.70;;;;;;4953979;28;20025;-68
2021/06/14 08:05:56;;;;;;;;;;;24.60;94.10;;;;;;4953711;29;19938;-67
2021/06/14 08:08:23;;;;;;;;;;;24.60;94.30;;;;;;4954576;28;20462;-68
2021/06/14 08:10:50;;;;;;;;;;;25.70;93.10;;;;;;4954125;28;19977;-68
2021/06/14 08:13:17;;;;;;;;;;;25.20;91.90;;;;;;4953760;28;19926;-68
2021/06/14 08:15:44;;;;;;;;;;;25.90;92.60;;;;;;4953808;28;19977;-68
2021/06/14 08:18:25;;;;;;;;;;;25.50;92.30;;;;;;4953407;28;19926;-67
2021/06/14 08:21:05;;;;;;;;;;;25.10;92.80;;;;;;4953674;28;19935;-68
2021/06/14 08:26:16;;;;;;;;;;;25.90;91.60;;;;;;4953831;28;19929;-68
2021/06/14 08:28:43;;;;;;;;;;;25.60;91.60;;;;;;4959959;28;20402;-67
2021/06/14 08:31:10;;;;;;;;;;;25.20;92.30;;;;;;4972648;28;19930;-67
2021/06/14 08:33:38;;;;;;;;;;;26.00;92.00;;;;;;4972766;28;19926;-68
2021/06/14 08:36:05;;;;;;;;;;;25.40;92.40;;;;;;4972614;28;20021;-67
2021/06/14 08:38:33;;;;;;;;;;;25.50;92.50;;;;;;4972470;28;19926;-67
2021/06/14 08:40:59;;;;;;;;;;;26.20;92.00;;;;;;4972860;28;19930;-67
2021/06/14 08:43:27;;;;;;;;;;;26.40;90.80;;;;;;4972426;28;19926;-67
2021/06/14 08:45:54;;;;;;;;;;;26.30;90.80;;;;;;4972334;28;20092;-67
2021/06/14 08:48:21;;;;;;;;;;;26.10;90.90;;;;;;4971095;28;20017;-68
2021/06/14 08:50:49;;;;;;;;;;;26.40;90.60;;;;;;4972369;28;20201;-68
2021/06/14 08:53:16;;;;;;;;;;;26.40;90.50;;;;;;4972237;28;20021;-68
2021/06/14 08:55:45;;;;;;;;;;;27.70;87.40;;;;;;4972115;28;19926;-68
2021/06/14 08:58:12;;;;;;;;;;;28.00;85.40;;;;;;4972099;28;19958;-68
2021/06/14 09:00:39;;;;;;;;;;;27.00;84.90;;;;;;4972369;28;19937;-66
2021/06/14 09:03:06;;;;;;;;;;;26.60;86.40;;;;;;4972018;28;19926;-68
2021/06/14 09:05:33;;;;;;;;;;;26.00;85.00;;;;;;4971897;28;19926;-67
2021/06/14 09:08:05;;;;;;;;;;;26.30;85.90;;;;;;4971871;28;19962;-67
2021/06/14 09:10:32;;;;;;;;;;;26.30;86.60;;;;;;4972349;28;20313;-67
2021/06/14 09:13:09;;;;;;;;;;;25.80;87.50;;;;;;4972182;28;19976;-67
2021/06/14 09:15:36;;;;;;;;;;;26.40;85.00;;;;;;4972247;28;19969;-67
2021/06/14 09:18:13;;;;;;;;;;;26.60;83.80;;;;;;4971907;28;19961;-67
2021/06/14 09:20:40;;;;;;;;;;;27.00;84.30;;;;;;4970795;28;19977;-67
2021/06/14 09:23:08;;;;;;;;;;;27.00;85.30;;;;;;4971876;28;20028;-67
2021/06/14 09:25:35;;;;;;;;;;;27.10;84.50;;;;;;4972030;28;19930;-67
2021/06/14 09:28:08;;;;;;;;;;;27.10;83.10;;;;;;4970612;28;20382;-68
2021/06/14 09:30:35;;;;;;;;;;;26.70;82.20;;;;;;4952147;28;19937;-68
2021/06/14 09:33:03;;;;;;;;;;;26.60;83.70;;;;;;4952035;28;19972;-68
2021/06/14 09:35:31;;;;;;;;;;;26.80;81.90;;;;;;4952189;28;19930;-68
2021/06/14 09:37:59;;;;;;;;;;;26.70;79.50;;;;;;4951940;28;19934;-68
2021/06/14 09:40:32;;;;;;;;;;;27.30;76.90;;;;;;4951844;29;19926;-68
2021/06/14 09:42:58;;;;;;;;;;;26.60;80.40;;;;;;4952113;28;19982;-68
2021/06/14 09:45:25;;;;;;;;;;;27.00;80.20;;;;;;4952026;28;20029;-68
2021/06/14 09:47:54;;;;;;;;;;;27.20;79.20;;;;;;4950202;29;20390;-68
2021/06/14 09:50:26;;;;;;;;;;;26.50;80.10;;;;;;4952216;28;19973;-67
2021/06/14 09:53:03;;;;;;;;;;;26.30;82.40;;;;;;4952140;28;20387;-68
2021/06/14 09:55:31;;;;;;;;;;;27.20;78.80;;;;;;4951811;28;19994;-68
2021/06/14 09:57:58;;;;;;;;;;;27.50;78.40;;;;;;4951965;28;20020;-67
2021/06/14 10:00:26;;;;;;;;;;;28.40;75.20;;;;;;4952218;28;19961;-67
2021/06/14 10:02:56;;;;;;;;;;;26.90;78.00;;;;;;4951903;29;19926;-68
2021/06/14 10:05:23;;;;;;;;;;;27.30;78.00;;;;;;4951890;28;20315;-68
2021/06/14 10:07:51;;;;;;;;;;;26.80;78.70;;;;;;4951866;28;20011;-67
2021/06/14 10:10:21;;;;;;;;;;;26.80;79.70;;;;;;4952169;28;19958;-68
2021/06/14 10:12:50;;;;;;;;;;;27.60;78.60;;;;;;4951714;28;19927;-67
2021/06/14 10:15:18;;;;;;;;;;;27.60;78.00;;;;;;4951863;29;19933;-68
2021/06/14 10:17:47;;;;;;;;;;;28.10;76.20;;;;;;4951671;28;19965;-67
2021/06/14 10:20:15;;;;;;;;;;;28.60;75.70;;;;;;4951772;28;19959;-68
2021/06/14 10:22:42;;;;;;;;;;;27.70;77.60;;;;;;4952336;28;20009;-68
2021/06/14 10:25:10;;;;;;;;;;;27.60;77.40;;;;;;4951926;28;19937;-67
2021/06/14 10:27:37;;;;;;;;;;;27.50;78.10;;;;;;4951937;29;20295;-67
2021/06/14 10:30:07;;;;;;;;;;;27.40;78.10;;;;;;4968802;28;20393;-67
2021/06/14 10:32:33;;;;;;;;;;;27.20;78.20;;;;;;4970733;28;19948;-68
2021/06/14 10:35:00;;;;;;;;;;;27.40;76.70;;;;;;4970727;28;19926;-67
2021/06/14 10:37:28;;;;;;;;;;;26.90;77.10;;;;;;4970857;28;19926;-67
2021/06/14 10:39:56;;;;;;;;;;;26.90;77.60;;;;;;4971809;28;19930;-67
2021/06/14 10:42:23;;;;;;;;;;;27.70;74.60;;;;;;4974689;28;19937;-67
2021/06/14 10:44:50;;;;;;;;;;;28.00;74.90;;;;;;4974327;28;20037;-67
2021/06/14 10:47:19;;;;;;;;;;;28.50;73.10;;;;;;4973423;28;19926;-68
2021/06/14 10:49:49;;;;;;;;;;;27.90;73.60;;;;;;4974639;28;19973;-67
2021/06/14 10:52:15;;;;;;;;;;;27.50;75.90;;;;;;4974759;28;19933;-68
2021/06/14 10:54:43;;;;;;;;;;;27.00;75.90;;;;;;4974641;28;20028;-66
2021/06/14 10:57:10;;;;;;;;;;;26.50;77.00;;;;;;4974553;28;19930;-67
2021/06/14 10:59:38;;;;;;;;;;;26.40;77.20;;;;;;4974565;28;20292;-67
2021/06/14 11:02:05;;;;;;;;;;;26.30;76.00;;;;;;4974715;28;19930;-67
2021/06/14 11:04:33;;;;;;;;;;;26.70;76.20;;;;;;4990764;23;19925;-69
2021/06/14 11:07:00;;;;;;;;;;;26.90;74.50;;;;;;4936439;29;19927;-70
2021/06/14 11:09:37;;;;;;;;;;;27.40;75.20;;;;;;4918935;29;20030;-69
2021/06/14 11:12:04;;;;;;;;;;;26.40;76.60;;;;;;4935929;29;19927;-69
2021/06/14 11:14:33;;;;;;;;;;;27.30;74.00;;;;;;4935722;29;19927;-69
2021/06/14 11:17:01;;;;;;;;;;;27.70;71.80;;;;;;4935581;29;19931;-69
2021/06/14 11:19:35;;;;;;;;;;;27.40;72.00;;;;;;4935511;29;19927;-69
2021/06/14 11:22:03;;;;;;;;;;;26.80;71.70;;;;;;4935818;29;19991;-70
2021/06/14 11:24:33;;;;;;;;;;;27.10;71.70;;;;;;4935556;29;19935;-69
2021/06/14 11:27:01;;;;;;;;;;;27.60;71.40;;;;;;4918449;29;19969;-70
2021/06/14 11:29:27;;;;;;;;;;;28.00;72.10;;;;;;4935232;29;20475;-69
2021/06/14 11:31:56;;;;;;;;;;;27.60;72.40;;;;;;4934955;29;19931;-70
2021/06/14 11:34:23;;;;;;;;;;;27.90;70.30;;;;;;4934800;29;19935;-70
2021/06/14 11:36:58;;;;;;;;;;;27.90;70.10;;;;;;4935109;29;19931;-68
2021/06/14 11:39:26;;;;;;;;;;;28.10;68.80;;;;;;4935356;29;19935;-68
2021/06/14 11:41:53;;;;;;;;;;;28.80;69.00;;;;;;4917854;29;19930;-70
2021/06/14 11:44:25;;;;;;;;;;;28.30;69.70;;;;;;4935124;29;20049;-69
2021/06/14 11:46:52;;;;;;;;;;;29.00;68.90;;;;;;4935001;29;19927;-69
2021/06/14 11:49:19;;;;;;;;;;;28.80;69.30;;;;;;4934871;29;19927;-70
2021/06/14 11:51:46;;;;;;;;;;;28.00;68.30;;;;;;4934440;29;20425;-69
2021/06/14 11:54:17;;;;;;;;;;;28.50;68.30;;;;;;4935105;29;19937;-70
2021/06/14 11:56:44;;;;;;;;;;;28.80;67.20;;;;;;4937224;29;19982;-69
2021/06/14 11:59:12;;;;;;;;;;;28.30;67.00;;;;;;4937402;29;19927;-69
2021/06/14 12:01:40;;;;;;;;;;;28.70;68.20;;;;;;4935306;29;20462;-69
2021/06/14 12:04:08;;;;;;;;;;;28.40;68.30;;;;;;4935087;29;19973;-69
2021/06/14 12:06:42;;;;;;;;;;;28.10;68.00;;;;;;4934882;29;20246;-69
2021/06/14 12:09:09;;;;;;;;;;;28.00;69.30;;;;;;4934695;29;19927;-70
2021/06/14 12:11:37;;;;;;;;;;;27.80;68.30;;;;;;4935091;29;19927;-69
2021/06/14 12:14:11;;;;;;;;;;;28.50;69.80;;;;;;4934591;29;20033;-69
2021/06/14 12:16:38;;;;;;;;;;;29.10;69.10;;;;;;4934713;29;19961;-70
2021/06/14 12:19:05;;;;;;;;;;;28.40;69.50;;;;;;4934898;29;20370;-68
2021/06/14 12:21:32;;;;;;;;;;;28.70;64.60;;;;;;4934507;29;19989;-69
2021/06/14 12:23:59;;;;;;;;;;;28.40;65.50;;;;;;4934586;29;19933;-69
2021/06/14 12:26:33;;;;;;;;;;;29.00;65.10;;;;;;4934435;29;20029;-70
2021/06/14 12:29:01;;;;;;;;;;;29.80;63.00;;;;;;4926238;29;19935;-68
2021/06/14 12:31:28;;;;;;;;;;;30.70;63.80;;;;;;4915713;29;19927;-68
2021/06/14 12:33:55;;;;;;;;;;;30.10;64.80;;;;;;4914950;29;20384;-68
2021/06/14 12:36:24;;;;;;;;;;;30.20;63.90;;;;;;4915025;29;20398;-68
2021/06/14 12:38:51;;;;;;;;;;;30.50;63.60;;;;;;4915185;29;19938;-69
2021/06/14 12:41:18;;;;;;;;;;;30.50;63.30;;;;;;4898370;29;20029;-68
2021/06/14 12:43:45;;;;;;;;;;;31.10;61.30;;;;;;4915130;29;19931;-68
2021/06/14 12:46:14;;;;;;;;;;;30.50;62.80;;;;;;4915066;29;19927;-69
2021/06/14 12:48:41;;;;;;;;;;;30.90;60.10;;;;;;4915270;29;20027;-68
2021/06/14 12:51:08;;;;;;;;;;;30.00;60.90;;;;;;4915386;29;19928;-68
2021/06/14 12:53:35;;;;;;;;;;;29.90;59.90;;;;;;4898020;29;20314;-68
2021/06/14 12:56:02;;;;;;;;;;;30.20;61.90;;;;;;4915160;29;19927;-68
2021/06/14 12:58:29;;;;;;;;;;;29.90;62.60;;;;;;4915116;29;19973;-70
2021/06/14 13:00:56;;;;;;;;;;;30.10;62.10;;;;;;4915222;29;19931;-70
2021/06/14 13:03:28;;;;;;;;;;;31.30;60.90;;;;;;4914047;29;19927;-70
2021/06/14 13:05:55;;;;;;;;;;;31.00;60.00;;;;;;4897283;29;20025;-69
2021/06/14 13:08:32;;;;;;;;;;;30.80;57.20;;;;;;4914659;29;19927;-69
2021/06/14 13:10:58;;;;;;;;;;;31.50;57.50;;;;;;4915006;29;20018;-70
2021/06/14 13:13:26;;;;;;;;;;;30.70;59.20;;;;;;4914597;29;19966;-70
2021/06/14 13:15:53;;;;;;;;;;;31.10;59.20;;;;;;4914307;29;19927;-70
2021/06/14 13:18:21;;;;;;;;;;;30.90;58.90;;;;;;4914364;29;20033;-69
2021/06/14 13:20:50;;;;;;;;;;;30.80;58.80;;;;;;4914190;29;19935;-70
2021/06/14 13:23:17;;;;;;;;;;;30.40;58.30;;;;;;4897412;29;19927;-70
2021/06/14 13:25:45;;;;;;;;;;;30.30;60.30;;;;;;4914297;29;19931;-70
2021/06/14 13:28:13;;;;;;;;;;;30.10;58.90;;;;;;4916489;29;19927;-70
2021/06/14 13:30:41;;;;;;;;;;;30.40;59.10;;;;;;4933628;29;20029;-69
2021/06/14 13:33:19;;;;;;;;;;;31.30;58.80;;;;;;4933260;29;19973;-70
2021/06/14 13:35:52;;;;;;;;;;;31.80;58.60;;;;;;4933147;29;19970;-70
2021/06/14 13:38:21;;;;;;;;;;;31.40;58.90;;;;;;4932997;29;19950;-70
2021/06/14 13:40:48;;;;;;;;;;;31.30;58.40;;;;;;4933171;29;19931;-70
2021/06/14 13:43:23;;;;;;;;;;;31.50;58.20;;;;;;4933122;29;20017;-70
2021/06/14 13:45:50;;;;;;;;;;;31.00;58.40;;;;;;4932813;29;19931;-70
2021/06/14 13:48:17;;;;;;;;;;;30.40;58.70;;;;;;4933004;29;19928;-70
2021/06/14 13:50:46;;;;;;;;;;;30.90;59.60;;;;;;4932930;29;19937;-70
2021/06/14 13:53:15;;;;;;;;;;;30.80;59.10;;;;;;4932909;29;20318;-70
2021/06/14 13:55:48;;;;;;;;;;;30.50;59.90;;;;;;4932936;29;19934;-71
2021/06/14 13:58:15;;;;;;;;;;;30.00;61.60;;;;;;4932869;29;19931;-70
2021/06/14 14:00:42;;;;;;;;;;;30.30;61.50;;;;;;4932948;29;19978;-70
2021/06/14 14:03:09;;;;;;;;;;;30.60;61.30;;;;;;4916092;29;20361;-70
2021/06/14 14:05:38;;;;;;;;;;;31.40;60.00;;;;;;4932832;29;20350;-70
2021/06/14 14:08:05;;;;;;;;;;;32.40;59.20;;;;;;4933204;29;19931;-70
2021/06/14 14:10:34;;;;;;;;;;;31.70;60.00;;;;;;4915993;29;20407;-70
2021/06/14 14:13:01;;;;;;;;;;;31.70;59.50;;;;;;4933218;29;19926;-70
2021/06/14 14:15:28;;;;;;;;;;;31.80;58.40;;;;;;4934096;29;19982;-70
2021/06/14 14:17:55;;;;;;;;;;;31.30;60.20;;;;;;4936941;29;19938;-70
2021/06/14 14:20:23;;;;;;;;;;;30.90;60.20;;;;;;4936645;29;19934;-70
2021/06/14 14:22:50;;;;;;;;;;;31.50;59.20;;;;;;4937099;29;20107;-70
2021/06/14 14:25:17;;;;;;;;;;;31.40;60.20;;;;;;4936552;29;20453;-71
2021/06/14 14:27:46;;;;;;;;;;;31.30;59.90;;;;;;4936874;29;19933;-71
2021/06/14 14:30:13;;;;;;;;;;;30.80;60.00;;;;;;4918621;29;19927;-70
2021/06/14 14:32:41;;;;;;;;;;;30.80;60.30;;;;;;4917196;29;19990;-69
2021/06/14 14:35:08;;;;;;;;;;;30.50;60.00;;;;;;4900207;29;19934;-70
2021/06/14 14:37:48;;;;;;;;;;;30.30;59.90;;;;;;4917415;29;19936;-70
2021/06/14 14:40:16;;;;;;;;;;;30.40;62.40;;;;;;4917690;29;20326;-70
2021/06/14 14:42:49;;;;;;;;;;;29.90;62.60;;;;;;4917206;29;20299;-69
2021/06/14 14:45:17;;;;;;;;;;;29.90;62.80;;;;;;4900215;29;19950;-69
2021/06/14 14:47:51;;;;;;;;;;;30.20;63.30;;;;;;4911323;29;19970;-70
2021/06/14 14:50:17;;;;;;;;;;;30.00;63.00;;;;;;4934439;29;20418;-69
2021/06/14 14:52:44;;;;;;;;;;;30.00;64.00;;;;;;4923651;29;19931;-67
2021/06/14 14:55:12;;;;;;;;;;;29.80;64.60;;;;;;4930612;29;20363;-68
2021/06/14 14:57:39;;;;;;;;;;;29.10;64.60;;;;;;4934395;29;19927;-66
2021/06/14 15:00:09;;;;;;;;;;;29.00;65.50;;;;;;4934602;29;19980;-67
2021/06/14 15:02:36;;;;;;;;;;;28.50;67.50;;;;;;4932189;29;20017;-66
2021/06/14 15:05:03;;;;;;;;;;;28.40;67.30;;;;;;4937970;29;19927;-66
2021/06/14 15:07:30;;;;;;;;;;;28.40;67.80;;;;;;4937345;29;19931;-66
2021/06/14 15:09:56;;;;;;;;;;;28.50;66.50;;;;;;4937382;29;19927;-68
2021/06/14 15:12:23;;;;;;;;;;;28.60;66.90;;;;;;4937760;29;19927;-67
2021/06/14 15:14:50;;;;;;;;;;;28.60;66.90;;;;;;4937585;29;19931;-66
2021/06/14 15:17:18;;;;;;;;;;;28.20;67.90;;;;;;4936831;29;19926;-69
2021/06/14 15:19:45;;;;;;;;;;;27.80;69.30;;;;;;4937233;29;19956;-69
2021/06/14 15:22:12;;;;;;;;;;;27.90;68.40;;;;;;4932962;29;19999;-69
2021/06/14 15:24:39;;;;;;;;;;;28.10;68.60;;;;;;4932682;29;19971;-69
2021/06/14 15:27:06;;;;;;;;;;;27.90;70.10;;;;;;4934086;29;20020;-68
2021/06/14 15:29:33;;;;;;;;;;;27.70;70.20;;;;;;4937298;29;19982;-68
2021/06/14 15:31:59;;;;;;;;;;;27.70;69.40;;;;;;4935924;29;20013;-69
2021/06/14 15:34:28;;;;;;;;;;;27.80;69.00;;;;;;4934158;29;19926;-69
2021/06/14 15:36:54;;;;;;;;;;;28.10;69.10;;;;;;4936625;29;20423;-69
2021/06/14 15:39:21;;;;;;;;;;;28.30;69.20;;;;;;4918571;29;20037;-69
2021/06/14 15:41:48;;;;;;;;;;;28.00;69.60;;;;;;4933928;29;20026;-69
2021/06/14 15:44:15;;;;;;;;;;;28.20;69.40;;;;;;4936653;29;19970;-69
2021/06/14 15:46:42;;;;;;;;;;;27.90;69.30;;;;;;4937051;29;19926;-68
2021/06/14 15:49:09;;;;;;;;;;;28.20;69.90;;;;;;4936604;29;19933;-69
2021/06/14 15:51:40;;;;;;;;;;;27.90;69.30;;;;;;4936872;29;20391;-69
2021/06/14 15:54:08;;;;;;;;;;;28.10;69.50;;;;;;4938267;29;19931;-70
2021/06/14 15:56:35;;;;;;;;;;;27.80;69.50;;;;;;4942149;29;20441;-68
2021/06/14 15:59:05;;;;;;;;;;;27.80;70.80;;;;;;4934907;29;20015;-68
2021/06/14 16:01:32;;;;;;;;;;;27.80;70.20;;;;;;4933541;29;19926;-69
2021/06/14 16:03:59;;;;;;;;;;;27.90;71.00;;;;;;4917443;29;19958;-68
2021/06/14 16:06:25;;;;;;;;;;;27.50;70.90;;;;;;4934310;29;19935;-68
2021/06/14 16:08:55;;;;;;;;;;;27.70;70.90;;;;;;4934211;29;19927;-68
2021/06/14 16:11:23;;;;;;;;;;;27.60;72.00;;;;;;4934933;29;20018;-68
2021/06/14 16:13:50;;;;;;;;;;;27.50;72.50;;;;;;4934632;29;19927;-69
2021/06/14 16:16:17;;;;;;;;;;;27.40;71.20;;;;;;4933007;29;20426;-68
2021/06/14 16:18:44;;;;;;;;;;;27.60;71.20;;;;;;4932290;29;19970;-68
2021/06/14 16:21:11;;;;;;;;;;;27.80;71.10;;;;;;4934496;29;19938;-68
2021/06/14 16:23:38;;;;;;;;;;;27.90;71.70;;;;;;4934499;29;19927;-68
2021/06/14 16:26:12;;;;;;;;;;;27.70;71.80;;;;;;4932257;29;20029;-68
2021/06/14 16:28:45;;;;;;;;;;;27.40;72.40;;;;;;4930867;29;19927;-68
2021/06/14 16:31:18;;;;;;;;;;;27.40;72.00;;;;;;4933183;29;20021;-69
2021/06/14 16:33:51;;;;;;;;;;;27.50;72.70;;;;;;4933413;29;20311;-68
2021/06/14 16:36:23;;;;;;;;;;;27.40;72.00;;;;;;4933063;29;19931;-68
2021/06/14 16:38:56;;;;;;;;;;;27.30;72.20;;;;;;4918459;29;19926;-67
2021/06/14 16:41:32;;;;;;;;;;;27.40;72.70;;;;;;4937558;29;19927;-68
2021/06/14 16:44:05;;;;;;;;;;;27.30;71.70;;;;;;4933292;29;19981;-68
2021/06/14 16:46:39;;;;;;;;;;;27.30;72.40;;;;;;4933518;29;19931;-68
2021/06/14 16:49:12;;;;;;;;;;;27.30;72.60;;;;;;4933712;29;19934;-68
2021/06/14 16:51:45;;;;;;;;;;;27.30;72.40;;;;;;4932789;29;19927;-68
2021/06/14 16:54:18;;;;;;;;;;;27.40;72.60;;;;;;4916319;29;20430;-67
2021/06/14 16:56:54;;;;;;;;;;;27.00;72.90;;;;;;4931302;29;19931;-67
2021/06/14 16:59:23;;;;;;;;;;;27.10;73.80;;;;;;4926907;29;19927;-68
2021/06/14 17:01:51;;;;;;;;;;;27.20;73.00;;;;;;4931926;29;19934;-68
2021/06/14 17:04:18;;;;;;;;;;;27.10;74.20;;;;;;4927062;29;19974;-69
2021/06/14 17:06:47;;;;;;;;;;;27.20;73.50;;;;;;4971554;23;20383;-70
2021/06/14 17:09:14;;;;;;;;;;;27.00;74.60;;;;;;4945161;29;19945;-72
2021/06/14 17:11:43;;;;;;;;;;;27.10;73.80;;;;;;4938013;29;20005;-70
2021/06/14 17:14:11;;;;;;;;;;;26.90;74.00;;;;;;4939776;29;19927;-70
2021/06/14 17:16:38;;;;;;;;;;;27.00;73.70;;;;;;4935668;29;19933;-69
2021/06/14 17:19:05;;;;;;;;;;;26.80;73.60;;;;;;4934885;29;20025;-70
2021/06/14 17:21:32;;;;;;;;;;;26.90;74.10;;;;;;4948270;29;19926;-70
2021/06/14 17:23:58;;;;;;;;;;;26.80;73.90;;;;;;4941098;29;19927;-70
2021/06/14 17:26:26;;;;;;;;;;;26.50;73.80;;;;;;4937050;29;19937;-71
2021/06/14 17:28:52;;;;;;;;;;;26.50;74.30;;;;;;4943114;29;19934;-71
2021/06/14 17:31:21;;;;;;;;;;;26.70;75.40;;;;;;4941955;29;20410;-70
2021/06/14 17:33:48;;;;;;;;;;;26.60;73.60;;;;;;4948220;29;19926;-70
2021/06/14 17:36:15;;;;;;;;;;;26.70;73.50;;;;;;4940299;29;19938;-70
2021/06/14 17:38:42;;;;;;;;;;;26.70;74.70;;;;;;4921443;29;20379;-70
2021/06/14 17:41:10;;;;;;;;;;;26.70;73.80;;;;;;4933346;29;19927;-71
2021/06/14 17:43:37;;;;;;;;;;;26.70;74.10;;;;;;4933385;29;19927;-69
2021/06/14 17:46:04;;;;;;;;;;;26.60;73.90;;;;;;4934029;29;20024;-68
2021/06/14 17:48:32;;;;;;;;;;;26.60;73.70;;;;;;4932559;29;19930;-69
2021/06/14 17:50:59;;;;;;;;;;;26.60;74.10;;;;;;4934223;29;20335;-70
2021/06/14 17:53:26;;;;;;;;;;;26.50;74.80;;;;;;4934164;29;19935;-69
2021/06/14 17:55:53;;;;;;;;;;;26.40;75.00;;;;;;4934315;29;20116;-70
2021/06/14 17:58:20;;;;;;;;;;;26.30;74.50;;;;;;4944736;29;19962;-70
2021/06/14 18:00:47;;;;;;;;;;;26.30;75.30;;;;;;4951046;29;19926;-69
2021/06/14 18:03:14;;;;;;;;;;;26.20;75.20;;;;;;4943490;29;19965;-69
2021/06/14 18:05:42;;;;;;;;;;;26.30;75.60;;;;;;4959335;29;19998;-70
2021/06/14 18:08:11;;;;;;;;;;;26.20;77.10;;;;;;4952554;29;19931;-69
2021/06/14 18:10:38;;;;;;;;;;;26.20;80.70;;;;;;4952389;29;19954;-70
2021/06/14 18:13:05;;;;;;;;;;;26.00;82.40;;;;;;4953470;29;19937;-69
2021/06/14 18:15:32;;;;;;;;;;;25.80;83.20;;;;;;4956718;29;19927;-69
2021/06/14 18:17:59;;;;;;;;;;;25.70;82.90;;;;;;4959369;29;19957;-69
2021/06/14 18:20:27;;;;;;;;;;;25.60;83.20;;;;;;4940186;29;19981;-71
2021/06/14 18:22:55;;;;;;;;;;;25.70;83.60;;;;;;4941977;29;19926;-70
2021/06/14 18:25:23;;;;;;;;;;;25.40;84.20;;;;;;4937557;29;20366;-71
2021/06/14 18:27:50;;;;;;;;;;;25.30;86.70;;;;;;4941762;29;19933;-70
2021/06/14 18:30:18;;;;;;;;;;;25.20;86.80;;;;;;4916694;29;20017;-70
2021/06/14 18:32:48;;;;;;;;;;;25.20;88.70;;;;;;4938107;29;19978;-68
2021/06/14 18:35:18;;;;;;;;;;;25.10;88.80;;;;;;4947931;29;19941;-70
2021/06/14 18:37:45;;;;;;;;;;;25.10;88.80;;;;;;4936123;29;19970;-70
2021/06/14 18:40:14;;;;;;;;;;;24.80;88.70;;;;;;4954618;29;19973;-70
2021/06/14 18:42:41;;;;;;;;;;;24.80;89.60;;;;;;4946687;29;19974;-70
2021/06/14 18:45:08;;;;;;;;;;;24.60;90.50;;;;;;4933978;29;19934;-70
2021/06/14 18:47:36;;;;;;;;;;;24.60;90.50;;;;;;4949319;29;19942;-70
2021/06/14 18:50:04;;;;;;;;;;;24.50;90.30;;;;;;4933382;29;19936;-70
2021/06/14 18:52:30;;;;;;;;;;;24.40;90.30;;;;;;4943693;29;20030;-70
2021/06/14 18:54:57;;;;;;;;;;;24.30;90.70;;;;;;4933962;29;19927;-70
2021/06/14 18:57:26;;;;;;;;;;;24.10;91.00;;;;;;4939386;29;19926;-69
2021/06/14 18:59:52;;;;;;;;;;;24.00;91.60;;;;;;4948255;29;19962;-69
2021/06/14 19:02:19;;;;;;;;;;;23.90;91.80;;;;;;4927338;29;19941;-71
2021/06/14 19:04:46;;;;;;;;;;;23.80;91.80;;;;;;4946373;29;19946;-69
2021/06/14 19:07:13;;;;;;;;;;;23.70;92.20;;;;;;4940218;29;19962;-70
2021/06/14 19:09:42;;;;;;;;;;;23.70;91.70;;;;;;4936515;29;20288;-71
2021/06/14 19:12:09;;;;;;;;;;;23.60;92.10;;;;;;4937132;29;20014;-70
2021/06/14 19:14:38;;;;;;;;;;;23.50;92.40;;;;;;4937111;29;20316;-71